Remanso, Brazil
Current Conditions -  °F | °C
As of 12:00 PM on Thursday 30 Oct 2014 (Local Time) from SBCZ Reporting Station
Thunderstorm Thunderstorm  
Wind Chill: 90°   Ceiling: 3000
Heat Index: 102°   Visibility: 6mi
Dew Point: 77°   Wind: 10mph
Humidity: 66%   Direction: 360°N
Pressure: 29.77"   Gusts: NA
Location:  8.48°S, 73.05°W
Report Text: SBCZ 301700Z 36009KT 9999 TS VCSH BKN030 FEW033CB 32/25 Q1008
Loading
Personal Weather Stations






























Interactive Weather Map
Tropical Storm Tracking
New forecast layout! Learn more

10-Day Weather Forecast

Advertisements
Track Severe Weather on mobile